Time;durP1;ratioP1;P1;durP2;ratioP2;P2;SDS_P1;SDS_P2;PMS_P1;PMS_P2;Temp;Humidity;BMP_temperature;BMP_pressure;BME280_temperature;BME280_humidity;BME280_pressure;Samples;Min_cycle;Max_cycle;Signal;HPM_P1;HPM_P2
2022/02/09 04:37:35;;;;;;;27.37;16.80;;;;;;;4.71;100.00;99808.48;4379860;78;37990;-91
2022/02/09 04:44:00;;;;;;;23.77;16.40;;;;;;;4.79;100.00;99813.13;4294094;81;21154;-91
2022/02/09 04:56:00;;;;;;;24.00;15.50;;;;;;;4.92;100.00;99811.39;4309018;80;40701;-93
2022/02/09 05:27:49;;;;;;;19.65;12.55;;;;;;;5.01;100.00;99829.83;4307565;80;27753;-91
2022/02/09 05:33:44;;;;;;;15.38;10.40;;;;;;;5.00;100.00;99824.14;4310145;81;21035;-93
2022/02/09 05:39:45;;;;;;;15.10;10.50;;;;;;;5.02;100.00;99818.66;4330257;81;21909;-91
2022/02/09 05:46:13;;;;;;;18.45;12.05;;;;;;;5.05;100.00;99818.56;4331647;81;21071;-92
2022/02/09 05:51:54;;;;;;;21.23;14.00;;;;;;;5.07;100.00;99821.77;4314757;81;21059;-94
2022/02/09 05:58:06;;;;;;;20.17;13.25;;;;;;;5.06;100.00;99836.47;4318965;81;21059;-92
2022/02/09 06:03:58;;;;;;;20.20;12.40;;;;;;;5.09;100.00;99842.03;4211696;83;21058;-93
2022/02/09 06:10:00;;;;;;;21.65;13.90;;;;;;;5.11;100.00;99845.78;4226201;83;21128;-92
2022/02/09 06:22:05;;;;;;;25.68;15.55;;;;;;;5.14;100.00;99858.75;4211569;83;21110;-93
2022/02/09 06:28:07;;;;;;;30.57;17.48;;;;;;;5.18;100.00;99859.69;4223819;83;21088;-93
2022/02/09 06:34:11;;;;;;;38.42;22.75;;;;;;;5.22;100.00;99850.59;4307359;81;21068;-92
2022/02/09 06:40:15;;;;;;;32.85;17.80;;;;;;;5.27;100.00;99842.84;4306011;81;21414;-92
2022/02/09 06:46:17;;;;;;;32.50;20.30;;;;;;;5.35;100.00;99854.27;4307861;81;21045;-92
2022/02/09 06:52:19;;;;;;;44.08;23.38;;;;;;;5.41;100.00;99863.30;4313462;81;21084;-92
2022/02/09 06:58:43;;;;;;;28.83;19.05;;;;;;;5.43;100.00;99866.50;4305967;81;21121;-92
2022/02/09 07:04:26;;;;;;;33.10;19.80;;;;;;;5.46;100.00;99860.42;4315440;80;21101;-92
2022/02/09 07:10:28;;;;;;;27.80;17.10;;;;;;;5.54;100.00;99864.25;4316290;81;21105;-93
2022/02/09 07:16:30;;;;;;;29.72;17.15;;;;;;;5.61;100.00;99857.76;4315709;81;21078;-92
2022/02/09 07:22:35;;;;;;;26.73;15.85;;;;;;;5.69;100.00;99857.77;4322134;81;21053;-91
2022/02/09 07:28:37;;;;;;;26.70;16.57;;;;;;;5.74;100.00;99857.60;4342203;80;21037;-91
2022/02/09 07:34:39;;;;;;;23.42;15.40;;;;;;;5.81;100.00;99862.55;4336328;81;21449;-92
2022/02/09 07:40:42;;;;;;;29.15;15.75;;;;;;;5.89;100.00;99863.91;4346284;81;21084;-92
2022/02/09 07:53:05;;;;;;;23.87;14.35;;;;;;;6.03;100.00;99886.25;4327176;81;21092;-93
2022/02/09 07:58:54;;;;;;;21.83;14.63;;;;;;;6.07;100.00;99877.70;4327963;81;21060;-91
2022/02/09 08:04:56;;;;;;;20.88;14.00;;;;;;;6.11;100.00;99871.84;4333229;81;21545;-93
2022/02/09 08:11:09;;;;;;;19.20;11.95;;;;;;;6.18;100.00;99868.64;4352214;80;21975;-93
2022/02/09 08:29:46;;;;;;;14.65;9.65;;;;;;;6.56;100.00;99859.13;4300982;80;21029;-93
2022/02/09 08:35:48;;;;;;;12.63;8.50;;;;;;;6.69;100.00;99856.75;4271038;82;21006;-92
2022/02/09 08:41:49;;;;;;;13.05;8.93;;;;;;;6.85;100.00;99861.84;4291250;82;21612;-93
2022/02/09 08:47:52;;;;;;;12.28;7.97;;;;;;;7.00;100.00;99864.01;4283825;82;22392;-93
2022/02/09 08:53:55;;;;;;;9.35;6.47;;;;;;;7.14;100.00;99867.27;4306695;82;21105;-91
2022/02/09 08:59:58;;;;;;;12.25;7.55;;;;;;;7.14;100.00;99870.77;4306041;81;21081;-93
2022/02/09 09:06:03;;;;;;;9.68;6.97;;;;;;;7.20;100.00;99876.84;4290716;82;21073;-92
2022/02/09 09:14:57;;;;;;;17.37;7.55;;;;;;;7.27;100.00;99873.00;4299068;82;21061;-92
2022/02/09 10:02:51;;;;;;;15.43;7.75;;;;;;;7.76;100.00;99883.02;4337330;81;22339;-93
2022/02/09 10:34:28;;;;;;;17.90;10.00;;;;;;;7.95;100.00;99866.97;4325741;81;21077;-92
2022/02/09 10:40:41;;;;;;;25.77;9.80;;;;;;;8.12;100.00;99853.15;4326557;81;21082;-94
2022/02/09 10:46:57;;;;;;;12.98;6.65;;;;;;;8.37;100.00;99843.91;4348956;81;21104;-93
2022/02/09 10:53:05;;;;;;;11.60;6.83;;;;;;;8.51;100.00;99841.64;4339992;81;21979;-94
2022/02/09 10:59:11;;;;;;;11.75;6.53;;;;;;;8.55;100.00;99832.20;4336373;81;21056;-93
2022/02/09 11:05:12;;;;;;;10.75;6.50;;;;;;;8.61;100.00;99821.28;4327775;81;21475;-93
2022/02/09 11:11:14;;;;;;;12.03;7.30;;;;;;;8.98;100.00;99829.66;4345151;81;21050;-93
2022/02/09 11:17:18;;;;;;;9.90;6.17;;;;;;;9.34;100.00;99830.94;4334528;80;21047;-93
2022/02/09 11:23:59;;;;;;;8.18;6.28;;;;;;;9.31;100.00;99823.44;4309676;81;21152;-92
2022/02/09 11:30:19;;;;;;;12.68;6.35;;;;;;;9.27;100.00;99821.19;4318869;80;21586;-93
2022/02/09 11:36:30;;;;;;;8.18;5.15;;;;;;;9.23;100.00;99810.14;4293421;82;22301;-94
2022/02/09 11:42:41;;;;;;;8.37;5.47;;;;;;;9.26;100.00;99799.89;4290166;82;21037;-92
2022/02/09 12:01:23;;;;;;;7.58;4.85;;;;;;;9.26;100.00;99806.72;4293789;82;21069;-94
2022/02/09 12:13:59;;;;;;;8.08;6.15;;;;;;;9.24;100.00;99804.89;4300027;81;21096;-92
2022/02/09 12:20:31;;;;;;;14.20;6.50;;;;;;;9.10;100.00;99810.50;4291031;82;21109;-94
2022/02/09 12:26:29;;;;;;;12.00;5.90;;;;;;;8.91;100.00;99807.02;4299017;82;21042;-94
2022/02/09 12:32:32;;;;;;;12.28;6.05;;;;;;;8.80;100.00;99810.59;4327836;80;21157;-93
2022/02/09 12:38:34;;;;;;;6.47;3.60;;;;;;;8.81;100.00;99810.23;4333975;81;21021;-92
2022/02/09 12:44:35;;;;;;;6.65;3.90;;;;;;;8.81;100.00;99807.51;4337396;81;21586;-92
2022/02/09 12:50:40;;;;;;;7.37;4.65;;;;;;;8.76;100.00;99808.30;4336152;80;21584;-92
2022/02/09 12:56:47;;;;;;;11.97;4.83;;;;;;;8.74;100.00;99803.18;4337421;81;21108;-92
2022/02/09 13:02:49;;;;;;;8.70;5.42;;;;;;;8.74;100.00;99796.36;4315053;81;25792;-92
2022/02/09 13:08:52;;;;;;;11.00;5.25;;;;;;;8.80;100.00;99799.66;4327275;80;24371;-92
2022/02/09 13:15:00;;;;;;;18.02;5.70;;;;;;;8.81;100.00;99791.69;4424381;80;21017;-92
2022/02/09 14:11:35;;;;;;;13.03;7.25;;;;;;;8.56;99.65;99801.84;4400104;79;21091;-92
2022/02/09 14:54:19;;;;;;;12.28;7.10;;;;;;;8.21;98.31;99806.67;4406608;79;21075;-93
2022/02/09 15:00:15;;;;;;;12.28;6.92;;;;;;;8.11;98.30;99798.95;4415983;79;21590;-94
2022/02/09 15:06:47;;;;;;;;;;;;;;;8.05;98.33;99801.08;4428425;79;20995;-93
2022/02/09 15:12:47;;;;;;;14.43;8.85;;;;;;;7.96;97.99;99804.48;4413398;79;20146;-92
2022/02/09 15:24:54;;;;;;;18.05;12.00;;;;;;;7.75;97.48;99815.44;4415616;79;21337;-92
2022/02/09 15:31:21;;;;;;;18.55;10.85;;;;;;;7.65;97.46;99809.07;4432403;78;22074;-92
2022/02/09 15:43:58;;;;;;;16.32;10.15;;;;;;;7.54;97.32;99805.73;4461852;79;21020;-91
2022/02/09 16:46:22;;;;;;;16.70;9.83;;;;;;;7.08;95.35;99808.70;4415053;79;21087;-94
2022/02/09 16:52:34;;;;;;;14.60;8.93;;;;;;;7.00;95.31;99800.03;4414405;80;21642;-93
2022/02/09 17:15:30;;;;;;;18.62;10.88;;;;;;;6.83;94.74;99803.66;4426799;79;21040;-93
2022/02/09 17:23:30;;;;;;;15.08;9.65;;;;;;;6.78;94.91;99807.92;4382602;79;21064;-92
2022/02/09 17:29:59;;;;;;;17.32;10.60;;;;;;;6.73;95.07;99809.50;4425273;79;21842;-93
2022/02/09 17:35:51;;;;;;;15.80;9.68;;;;;;;6.72;94.88;99802.45;4427618;79;21042;-92
2022/02/09 17:55:23;;;;;;;24.85;12.58;;;;;;;6.71;94.56;99800.06;4419417;78;21047;-92
2022/02/09 18:00:41;;;;;;;19.05;11.38;;;;;;;6.69;94.66;99799.03;4424259;79;21050;-92
2022/02/09 18:06:47;;;;;;;21.48;11.35;;;;;;;6.71;94.25;99802.78;4436787;79;21098;-93
2022/02/09 18:13:03;;;;;;;16.60;10.55;;;;;;;6.70;94.66;99803.92;4438609;78;21143;-93
2022/02/09 18:31:15;;;;;;;16.70;10.60;;;;;;;6.67;94.45;99801.86;4430717;78;21071;-93
2022/02/09 18:43:39;;;;;;;20.55;11.30;;;;;;;6.63;94.50;99794.91;4411118;79;21091;-92
2022/02/09 19:14:50;;;;;;;24.12;14.60;;;;;;;6.52;94.83;99797.77;4414398;79;21067;-92
2022/02/09 19:27:28;;;;;;;25.92;15.98;;;;;;;6.43;94.94;99817.98;4416227;79;21164;-92
2022/02/09 19:33:32;;;;;;;29.57;16.70;;;;;;;6.36;95.18;99823.92;4435941;78;21051;-92
2022/02/09 19:45:55;;;;;;;21.42;11.75;;;;;;;6.28;94.97;99809.25;4463704;78;22050;-90
2022/02/09 19:57:48;;;;;;;22.00;13.53;;;;;;;6.24;94.77;99827.36;4406655;80;21132;-91
2022/02/09 20:03:50;;;;;;;21.90;13.22;;;;;;;6.23;94.70;99824.96;4423179;80;21128;-92
2022/02/09 20:09:51;;;;;;;22.35;12.58;;;;;;;6.23;94.55;99828.45;4409657;80;21012;-91
2022/02/09 20:15:53;;;;;;;25.32;14.83;;;;;;;6.24;94.31;99832.80;4416612;80;21442;-92
2022/02/09 20:21:54;;;;;;;22.20;13.25;;;;;;;6.21;94.31;99833.45;4418316;80;21043;-91
2022/02/09 20:27:56;;;;;;;35.60;17.45;;;;;;;6.22;94.16;99834.22;4464793;78;21258;-92
2022/02/09 20:34:06;;;;;;;28.67;15.18;;;;;;;6.20;94.06;99835.91;4440487;78;21073;-91
2022/02/09 20:40:11;;;;;;;25.25;12.90;;;;;;;6.19;93.94;99852.55;4411083;79;21074;-91
2022/02/09 20:46:09;;;;;;;22.75;12.15;;;;;;;6.18;93.58;99838.73;4418033;79;22030;-92
2022/02/09 20:52:13;;;;;;;23.85;12.23;;;;;;;6.17;92.93;99836.56;4425553;79;21069;-91
2022/02/09 20:58:15;;;;;;;20.45;11.83;;;;;;;6.15;93.14;99843.46;4422095;79;21085;-91
2022/02/09 21:04:19;;;;;;;18.17;11.73;;;;;;;6.12;93.18;99829.16;4419352;79;21654;-91
2022/02/09 21:23:07;;;;;;;15.88;10.00;;;;;;;6.07;92.68;99807.59;4269341;82;21708;-92
2022/02/09 21:30:09;;;;;;;18.17;9.23;;;;;;;6.06;92.51;99802.70;4257716;82;21043;-92
2022/02/09 22:00:31;;;;;;;14.10;8.13;;;;;;;6.00;91.34;99816.79;4361951;80;21024;-92
2022/02/09 22:55:47;;;;;;;11.57;5.97;;;;;;;5.89;87.83;99783.74;4327016;81;21055;-92
2022/02/09 23:01:54;;;;;;;11.63;5.45;;;;;;;5.87;87.74;99792.00;4331753;81;21098;-93
2022/02/09 23:08:28;;;;;;;9.28;5.83;;;;;;;5.89;88.32;99782.38;4331285;81;21483;-92
2022/02/09 23:20:59;;;;;;;10.48;6.00;;;;;;;5.85;87.02;99785.52;4321249;81;21054;-93
2022/02/09 23:53:06;;;;;;;7.28;5.55;;;;;;;5.83;87.71;99774.73;4315478;81;21453;-92
